createdAt,value
2017-10-26T00:00:54.851Z,0
2017-10-26T00:01:54.878Z,0
2017-10-26T00:02:54.576Z,0
2017-10-26T00:03:54.923Z,0
2017-10-26T00:04:54.651Z,0
2017-10-26T00:05:55.278Z,0
2017-10-26T00:06:54.981Z,0
2017-10-26T00:07:55.005Z,0
2017-10-26T00:08:55.025Z,0
2017-10-26T00:09:55.042Z,0
2017-10-26T00:10:55.387Z,0
2017-10-26T00:11:55.100Z,0
2017-10-26T00:12:55.426Z,0
2017-10-26T00:13:55.468Z,0
2017-10-26T00:14:54.824Z,0
2017-10-26T00:15:55.191Z,0
2017-10-26T00:16:55.202Z,0
2017-10-26T00:17:54.574Z,0
2017-10-26T00:18:55.241Z,0
2017-10-26T00:19:54.936Z,0
2017-10-26T00:20:55.279Z,0
2017-10-26T00:21:55.621Z,0
2017-10-26T00:22:54.680Z,0
2017-10-26T00:23:54.698Z,0
2017-10-26T00:24:55.040Z,0
2017-10-26T00:25:55.061Z,0
2017-10-26T00:26:55.078Z,0
2017-10-26T00:27:55.450Z,0
2017-10-26T00:28:55.456Z,0
2017-10-26T00:29:55.159Z,0
2017-10-26T00:30:54.850Z,0
2017-10-26T00:31:55.521Z,0
2017-10-26T00:32:55.534Z,0
2017-10-26T00:33:55.558Z,0
2017-10-26T00:34:55.579Z,0
2017-10-26T00:35:55.609Z,0
2017-10-26T00:36:55.299Z,0
2017-10-26T00:37:55.321Z,0
2017-10-26T00:38:55.349Z,0
2017-10-26T00:39:56.007Z,0
2017-10-26T00:40:55.705Z,0
2017-10-26T00:41:55.746Z,0
2017-10-26T00:42:55.896Z,0
2017-10-26T00:43:55.815Z,0
2017-10-26T00:44:56.121Z,0
2017-10-26T00:45:55.812Z,0
2017-10-26T00:46:55.856Z,0
2017-10-26T00:47:56.176Z,0
2017-10-26T00:48:56.224Z,0
2017-10-26T00:49:56.227Z,0
2017-10-26T00:50:55.943Z,0
2017-10-26T00:51:56.270Z,0
2017-10-26T00:52:55.675Z,0
2017-10-26T00:53:55.665Z,0
2017-10-26T00:54:55.705Z,0
2017-10-26T00:55:56.040Z,0
2017-10-26T00:56:55.729Z,0
2017-10-26T00:57:55.826Z,0
2017-10-26T00:58:56.432Z,0
2017-10-26T00:59:56.445Z,0
2017-10-26T01:00:56.146Z,0
2017-10-26T01:01:55.869Z,0
2017-10-26T01:02:56.188Z,0
2017-10-26T01:03:56.536Z,0
2017-10-26T01:04:56.230Z,0
2017-10-26T01:05:55.944Z,0
2017-10-26T01:06:56.602Z,0
2017-10-26T01:07:55.650Z,0
2017-10-26T01:08:56.313Z,0
2017-10-26T01:09:56.016Z,0
2017-10-26T01:10:56.359Z,0
2017-10-26T01:11:56.055Z,0
2017-10-26T01:12:56.096Z,0
2017-10-26T01:13:56.753Z,0
2017-10-26T01:14:56.761Z,0
2017-10-26T01:15:56.170Z,0
2017-10-26T01:16:56.508Z,0
2017-10-26T01:17:56.217Z,0
2017-10-26T01:18:56.894Z,0
2017-10-26T01:19:56.553Z,0
2017-10-26T01:20:56.577Z,0
2017-10-26T01:21:56.933Z,0
2017-10-26T01:22:56.941Z,0
2017-10-26T01:23:56.637Z,0
2017-10-26T01:24:56.667Z,0
2017-10-26T01:25:56.688Z,0
2017-10-26T01:26:57.025Z,0
2017-10-26T01:27:56.731Z,0
2017-10-26T01:28:56.438Z,0
2017-10-26T01:29:56.771Z,0
2017-10-26T01:30:56.792Z,0
2017-10-26T01:31:56.815Z,0
2017-10-26T01:32:56.189Z,0
2017-10-26T01:33:56.631Z,0
2017-10-26T01:34:56.886Z,0
2017-10-26T01:35:56.951Z,0
2017-10-26T01:36:57.269Z,0
2017-10-26T01:37:57.289Z,0
2017-10-26T01:38:56.646Z,0
2017-10-26T01:39:56.990Z,0
2017-10-26T01:40:57.011Z,0
2017-10-26T01:41:57.038Z,0
2017-10-26T01:42:56.739Z,0
2017-10-26T01:43:57.398Z,0
2017-10-26T01:44:57.119Z,0
2017-10-26T01:45:56.796Z,0
2017-10-26T01:46:57.144Z,0
2017-10-26T01:47:56.844Z,0
2017-10-26T01:48:56.872Z,0
2017-10-26T01:49:57.208Z,0
2017-10-26T01:50:57.565Z,0
2017-10-26T01:51:57.256Z,0
2017-10-26T01:52:57.590Z,0
2017-10-26T01:53:57.293Z,0
2017-10-26T01:54:57.323Z,0
2017-10-26T01:55:57.663Z,0
2017-10-26T01:56:57.360Z,0
2017-10-26T01:57:57.385Z,0
2017-10-26T01:58:57.723Z,0
2017-10-26T01:59:57.451Z,0
2017-10-26T02:00:57.125Z,0
2017-10-26T02:01:57.147Z,0
2017-10-26T02:02:57.492Z,0
2017-10-26T02:03:57.846Z,0
2017-10-26T02:04:57.547Z,0
2017-10-26T02:05:57.890Z,0
2017-10-26T02:06:57.259Z,0
2017-10-26T02:07:57.645Z,0
2017-10-26T02:08:56.980Z,0
2017-10-26T02:09:57.975Z,0
2017-10-26T02:10:57.662Z,0
2017-10-26T02:11:58.013Z,0
2017-10-26T02:12:57.713Z,0
2017-10-26T02:13:57.415Z,0
2017-10-26T02:14:57.118Z,0
2017-10-26T02:15:57.473Z,0
2017-10-26T02:16:58.119Z,0
2017-10-26T02:17:58.150Z,0
2017-10-26T02:18:57.845Z,0
2017-10-26T02:19:57.865Z,0
2017-10-26T02:20:58.214Z,0
2017-10-26T02:21:57.583Z,0
2017-10-26T02:22:58.256Z,0
2017-10-26T02:23:57.949Z,0
2017-10-26T02:24:57.647Z,0
2017-10-26T02:25:57.344Z,0
2017-10-26T02:26:58.016Z,0
2017-10-26T02:27:58.359Z,0
2017-10-26T02:28:58.053Z,0
2017-10-26T02:29:57.430Z,0
2017-10-26T02:30:58.123Z,0
2017-10-26T02:31:57.804Z,0
2017-10-26T02:32:57.823Z,0
2017-10-26T02:33:58.490Z,0
2017-10-26T02:34:57.879Z,0
2017-10-26T02:35:58.206Z,0
2017-10-26T02:36:58.227Z,0
2017-10-26T02:37:58.258Z,0
2017-10-26T02:38:57.948Z,0
2017-10-26T02:39:58.620Z,0
2017-10-26T02:40:57.671Z,0
2017-10-26T02:41:58.353Z,0
2017-10-26T02:42:58.711Z,0
2017-10-26T02:43:57.735Z,0
2017-10-26T02:44:58.725Z,0
2017-10-26T02:45:58.748Z,0
2017-10-26T02:46:58.774Z,0
2017-10-26T02:47:58.468Z,0
2017-10-26T02:48:58.495Z,0
2017-10-26T02:49:58.186Z,0
2017-10-26T02:50:58.858Z,0
2017-10-26T02:51:58.548Z,0
2017-10-26T02:52:58.583Z,0
2017-10-26T02:53:58.600Z,0
2017-10-26T02:54:58.627Z,0
2017-10-26T02:55:58.636Z,0
2017-10-26T02:56:58.981Z,0
2017-10-26T02:57:59.046Z,0
2017-10-26T02:58:58.060Z,0
2017-10-26T02:59:58.720Z,0
2017-10-26T03:00:58.429Z,0
2017-10-26T03:01:58.124Z,0
2017-10-26T03:02:58.468Z,0
2017-10-26T03:03:58.487Z,0
2017-10-26T03:04:58.830Z,0
2017-10-26T03:05:58.857Z,0
2017-10-26T03:06:58.549Z,0
2017-10-26T03:07:58.890Z,0
2017-10-26T03:08:58.599Z,0
2017-10-26T03:09:59.269Z,0
2017-10-26T03:10:59.282Z,0
2017-10-26T03:11:58.336Z,0
2017-10-26T03:12:59.005Z,0
2017-10-26T03:13:59.351Z,0
2017-10-26T03:14:59.373Z,0
2017-10-26T03:15:59.086Z,0
2017-10-26T03:16:59.419Z,0
2017-10-26T03:17:59.105Z,0
2017-10-26T03:18:59.133Z,0
2017-10-26T03:19:59.163Z,0
2017-10-26T03:20:59.175Z,0
2017-10-26T03:21:59.199Z,0
2017-10-26T03:22:58.897Z,0
2017-10-26T03:23:58.934Z,0
2017-10-26T03:24:59.265Z,0
2017-10-26T03:25:59.281Z,0
2017-10-26T03:26:59.299Z,0
2017-10-26T03:27:59.337Z,0
2017-10-26T03:28:59.340Z,0
2017-10-26T03:29:59.358Z,0
2017-10-26T03:30:59.401Z,0
2017-10-26T03:31:59.418Z,0
2017-10-26T03:32:59.434Z,0
2017-10-26T03:33:59.796Z,0
2017-10-26T03:34:59.470Z,0
2017-10-26T03:35:59.493Z,0
2017-10-26T03:36:59.520Z,0
2017-10-26T03:37:59.211Z,0
2017-10-26T03:38:59.552Z,0
2017-10-26T03:39:58.941Z,0
2017-10-26T03:40:59.601Z,0
2017-10-26T03:41:59.615Z,0
2017-10-26T03:42:59.982Z,0
2017-10-26T03:43:59.350Z,0
2017-10-26T03:44:59.703Z,0
2017-10-26T03:45:59.055Z,0
2017-10-26T03:46:59.402Z,0
2017-10-26T03:48:00.071Z,0
2017-10-26T03:48:59.771Z,0
2017-10-26T03:49:59.786Z,0
2017-10-26T03:50:59.803Z,0
2017-10-26T03:51:59.824Z,0
2017-10-26T03:52:59.525Z,0
2017-10-26T03:53:59.878Z,0
2017-10-26T03:54:59.890Z,0
2017-10-26T03:55:59.272Z,0
2017-10-26T03:56:59.933Z,0
2017-10-26T03:57:59.630Z,0
2017-10-26T03:58:59.684Z,0
2017-10-26T04:00:00.315Z,0
2017-10-26T04:01:00.015Z,0
2017-10-26T04:02:00.094Z,0
2017-10-26T04:03:00.062Z,0
2017-10-26T04:04:00.073Z,0
2017-10-26T04:04:59.777Z,0
2017-10-26T04:06:00.123Z,0
2017-10-26T04:07:00.136Z,0
2017-10-26T04:08:00.477Z,0
2017-10-26T04:09:00.517Z,0
2017-10-26T04:10:00.203Z,0
2017-10-26T04:11:00.223Z,0
2017-10-26T04:12:00.577Z,0
2017-10-26T04:12:59.621Z,0
2017-10-26T04:13:59.968Z,0
2017-10-26T04:15:00.309Z,0
2017-10-26T04:16:00.013Z,0
2017-10-26T04:17:00.377Z,0
2017-10-26T04:18:00.385Z,0
2017-10-26T04:19:00.397Z,0
2017-10-26T04:20:00.416Z,0
2017-10-26T04:21:00.770Z,0
2017-10-26T04:22:00.138Z,0
2017-10-26T04:23:00.156Z,0
2017-10-26T04:24:00.505Z,0
2017-10-26T04:25:00.536Z,0
2017-10-26T04:26:00.218Z,0
2017-10-26T04:27:00.566Z,0
2017-10-26T04:28:00.913Z,0
2017-10-26T04:29:00.618Z,0
2017-10-26T04:30:00.946Z,0
2017-10-26T04:31:00.972Z,0
2017-10-26T04:32:01.021Z,0
2017-10-26T04:33:00.385Z,0
2017-10-26T04:34:00.713Z,0
2017-10-26T04:35:00.726Z,0
2017-10-26T04:36:01.078Z,0
2017-10-26T04:37:01.097Z,0
2017-10-26T04:38:00.472Z,0
2017-10-26T04:39:00.488Z,0
2017-10-26T04:40:00.840Z,0
2017-10-26T04:41:00.556Z,0
2017-10-26T04:42:00.234Z,0
2017-10-26T04:43:00.574Z,0
2017-10-26T04:44:01.262Z,0
2017-10-26T04:45:00.944Z,0
2017-10-26T04:46:00.639Z,0
2017-10-26T04:47:00.980Z,0
2017-10-26T04:48:00.685Z,0
2017-10-26T04:49:01.039Z,0
2017-10-26T04:50:01.045Z,0
2017-10-26T04:51:01.059Z,0
2017-10-26T04:52:00.764Z,0
2017-10-26T04:53:01.431Z,0
2017-10-26T04:54:00.805Z,0
2017-10-26T04:55:01.166Z,0
2017-10-26T04:56:01.172Z,0
2017-10-26T04:57:01.194Z,0
2017-10-26T04:58:01.533Z,0
2017-10-26T04:59:00.597Z,0
2017-10-26T05:00:01.282Z,0
2017-10-26T05:01:00.955Z,0
2017-10-26T05:02:01.297Z,0
2017-10-26T05:03:00.689Z,0
2017-10-26T05:04:01.021Z,0
2017-10-26T05:05:01.367Z,0
2017-10-26T05:06:01.065Z,0
2017-10-26T05:07:01.411Z,0
2017-10-26T05:08:00.796Z,0
2017-10-26T05:09:01.119Z,0
2017-10-26T05:10:01.468Z,0
2017-10-26T05:11:01.491Z,0
2017-10-26T05:12:01.515Z,0
2017-10-26T05:13:01.215Z,0
2017-10-26T05:14:01.553Z,0
2017-10-26T05:15:00.932Z,0
2017-10-26T05:16:00.949Z,0
2017-10-26T05:17:01.610Z,0
2017-10-26T05:18:00.990Z,0
2017-10-26T05:19:01.333Z,0
2017-10-26T05:20:01.675Z,0
2017-10-26T05:21:01.695Z,0
2017-10-26T05:22:01.415Z,0
2017-10-26T05:23:01.428Z,4
2017-10-26T05:24:02.090Z,0
2017-10-26T05:25:01.785Z,4
2017-10-26T05:26:01.805Z,4
2017-10-26T05:27:01.827Z,4
2017-10-26T05:28:01.833Z,4
2017-10-26T05:29:01.856Z,8
2017-10-26T05:30:01.878Z,4
2017-10-26T05:31:01.922Z,8
2017-10-26T05:32:01.289Z,8
2017-10-26T05:33:01.969Z,12
2017-10-26T05:34:01.677Z,16
2017-10-26T05:35:01.999Z,20
2017-10-26T05:36:02.014Z,20
2017-10-26T05:37:02.362Z,28
2017-10-26T05:38:01.738Z,32
2017-10-26T05:39:02.086Z,36
2017-10-26T05:40:02.460Z,40
2017-10-26T05:41:01.802Z,44
2017-10-26T05:42:02.140Z,56
2017-10-26T05:43:02.163Z,64
2017-10-26T05:44:01.865Z,76
2017-10-26T05:45:02.206Z,84
2017-10-26T05:46:02.556Z,92
2017-10-26T05:47:02.569Z,100
2017-10-26T05:48:02.276Z,112
2017-10-26T05:49:02.296Z,120
2017-10-26T05:50:02.322Z,132
2017-10-26T05:51:02.330Z,144
2017-10-26T05:52:02.372Z,160
2017-10-26T05:53:02.048Z,176
2017-10-26T05:54:01.751Z,196
2017-10-26T05:55:02.421Z,220
2017-10-26T05:56:02.457Z,240
2017-10-26T05:57:02.458Z,268
2017-10-26T05:58:02.799Z,296
2017-10-26T05:59:02.508Z,328
2017-10-26T06:00:01.874Z,360
2017-10-26T06:01:02.219Z,396
2017-10-26T06:02:02.585Z,428
2017-10-26T06:03:02.276Z,468
2017-10-26T06:04:02.628Z,504
2017-10-26T06:05:02.307Z,548
2017-10-26T06:06:02.981Z,588
2017-10-26T06:07:02.993Z,632
2017-10-26T06:08:02.701Z,676
2017-10-26T06:09:02.705Z,712
2017-10-26T06:10:03.055Z,756
2017-10-26T06:11:02.104Z,804
2017-10-26T06:12:02.460Z,856
2017-10-26T06:13:02.148Z,904
2017-10-26T06:14:03.139Z,952
2017-10-26T06:15:03.148Z,996
2017-10-26T06:16:02.555Z,1044
2017-10-26T06:17:02.550Z,1100
2017-10-26T06:18:03.223Z,1168
2017-10-26T06:19:03.240Z,1228
2017-10-26T06:20:02.607Z,1276
2017-10-26T06:21:02.629Z,1316
2017-10-26T06:22:02.975Z,1356
2017-10-26T06:23:03.000Z,1408
2017-10-26T06:24:03.335Z,1476
2017-10-26T06:25:02.718Z,1556
2017-10-26T06:26:03.055Z,1608
2017-10-26T06:27:02.750Z,1644
2017-10-26T06:28:03.419Z,1672
2017-10-26T06:29:02.793Z,1696
2017-10-26T06:30:02.812Z,1732
2017-10-26T06:31:03.483Z,1796
2017-10-26T06:32:03.174Z,1844
2017-10-26T06:33:03.523Z,1868
2017-10-26T06:34:03.215Z,1900
2017-10-26T06:35:03.235Z,1944
2017-10-26T06:36:02.934Z,2008
2017-10-26T06:37:03.285Z,2044
2017-10-26T06:38:02.652Z,2048
2017-10-26T06:39:03.319Z,2048
2017-10-26T06:40:03.663Z,2068
2017-10-26T06:41:03.357Z,2096
2017-10-26T06:42:03.701Z,2128
2017-10-26T06:43:03.724Z,2192
2017-10-26T06:44:02.778Z,2284
2017-10-26T06:45:03.765Z,2380
2017-10-26T06:46:03.486Z,2408
2017-10-26T06:47:03.481Z,2420
2017-10-26T06:48:03.822Z,2436
2017-10-26T06:49:03.199Z,2464
2017-10-26T06:50:03.219Z,2452
2017-10-26T06:51:03.558Z,2452
2017-10-26T06:52:03.927Z,2476
2017-10-26T06:53:03.281Z,2504
2017-10-26T06:54:03.647Z,2516
2017-10-26T06:55:03.977Z,2536
2017-10-26T06:56:03.664Z,2576
2017-10-26T06:57:03.694Z,2688
2017-10-26T06:58:03.395Z,2740
2017-10-26T06:59:03.409Z,2692
2017-10-26T07:00:04.073Z,2692
2017-10-26T07:01:03.448Z,2700
2017-10-26T07:02:03.473Z,2780
2017-10-26T07:03:03.487Z,2952
2017-10-26T07:04:03.513Z,3084
2017-10-26T07:05:03.540Z,3188
2017-10-26T07:06:03.872Z,3308
2017-10-26T07:07:03.890Z,3212
2017-10-26T07:08:03.905Z,3184
2017-10-26T07:09:03.608Z,3216
2017-10-26T07:10:03.952Z,3132
2017-10-26T07:11:03.330Z,3156
2017-10-26T07:12:03.678Z,3116
2017-10-26T07:13:04.331Z,3128
2017-10-26T07:14:03.389Z,2996
2017-10-26T07:15:04.054Z,2732
2017-10-26T07:16:04.097Z,2812
2017-10-26T07:17:04.099Z,2960
2017-10-26T07:18:03.794Z,3000
2017-10-26T07:19:03.821Z,3008
2017-10-26T07:20:04.482Z,3136
2017-10-26T07:21:03.863Z,3136
2017-10-26T07:22:03.887Z,3036
2017-10-26T07:23:03.906Z,3048
2017-10-26T07:24:03.599Z,3132
2017-10-26T07:25:03.959Z,3160
2017-10-26T07:26:04.298Z,3304
2017-10-26T07:27:03.992Z,3324
2017-10-26T07:28:04.330Z,3304
2017-10-26T07:29:04.353Z,3340
2017-10-26T07:30:04.687Z,3392
2017-10-26T07:31:04.396Z,3436
2017-10-26T07:32:04.411Z,3436
2017-10-26T07:33:04.754Z,3420
2017-10-26T07:34:04.453Z,3540
2017-10-26T07:35:04.482Z,3868
2017-10-26T07:36:04.814Z,4104
2017-10-26T07:37:04.198Z,4332
2017-10-26T07:38:04.864Z,4524
2017-10-26T07:39:04.560Z,4684
2017-10-26T07:40:04.586Z,4928
2017-10-26T07:41:04.597Z,4836
2017-10-26T07:42:03.981Z,5220
2017-10-26T07:43:04.644Z,5404
2017-10-26T07:44:04.987Z,5464
2017-10-26T07:45:04.685Z,5616
2017-10-26T07:46:04.706Z,5876
2017-10-26T07:47:04.089Z,6080
2017-10-26T07:48:04.454Z,6248
2017-10-26T07:49:05.128Z,6316
2017-10-26T07:50:04.484Z,6464
2017-10-26T07:51:04.821Z,6624
2017-10-26T07:52:04.847Z,6764
2017-10-26T07:53:04.543Z,6888
2017-10-26T07:54:04.896Z,7056
2017-10-26T07:55:04.599Z,7224
2017-10-26T07:56:05.248Z,7308
2017-10-26T07:57:05.275Z,7000
2017-10-26T07:58:04.994Z,7328
2017-10-26T07:59:05.002Z,7532
2017-10-26T08:00:05.040Z,7808
2017-10-26T08:01:04.720Z,7984
2017-10-26T08:02:05.390Z,8136
2017-10-26T08:03:05.088Z,8244
2017-10-26T08:04:04.795Z,8228
2017-10-26T08:05:05.142Z,8088
2017-10-26T08:06:05.167Z,7328
2017-10-26T08:07:05.188Z,7060
2017-10-26T08:08:04.881Z,7632
2017-10-26T08:09:05.552Z,8004
2017-10-26T08:10:05.246Z,8532
2017-10-26T08:11:05.589Z,8792
2017-10-26T08:12:04.967Z,8608
2017-10-26T08:13:05.340Z,8472
2017-10-26T08:14:05.343Z,8464
2017-10-26T08:15:05.677Z,7992
2017-10-26T08:16:05.059Z,7680
2017-10-26T08:17:05.739Z,7724
2017-10-26T08:18:04.798Z,7812
2017-10-26T08:19:05.129Z,7780
2017-10-26T08:20:05.192Z,7476
2017-10-26T08:21:05.546Z,7316
2017-10-26T08:22:05.842Z,7456
2017-10-26T08:23:05.530Z,7436
2017-10-26T08:24:05.556Z,7548
2017-10-26T08:25:05.258Z,7252
2017-10-26T08:26:05.301Z,5880
2017-10-26T08:27:05.943Z,5628
2017-10-26T08:28:05.976Z,5380
2017-10-26T08:29:05.993Z,5248
2017-10-26T08:30:05.692Z,5112
2017-10-26T08:31:06.064Z,4956
2017-10-26T08:32:05.750Z,4796
2017-10-26T08:33:05.447Z,4652
2017-10-26T08:34:05.797Z,4556
2017-10-26T08:35:05.839Z,4608
2017-10-26T08:36:05.863Z,5928
2017-10-26T08:37:05.596Z,5440
2017-10-26T08:38:05.577Z,6068
2017-10-26T08:39:05.949Z,4580
2017-10-26T08:40:05.631Z,4588
2017-10-26T08:41:06.274Z,4612
2017-10-26T08:42:05.660Z,4652
2017-10-26T08:43:06.007Z,4080
2017-10-26T08:44:06.043Z,4508
2017-10-26T08:45:06.039Z,5428
2017-10-26T08:46:06.063Z,6036
2017-10-26T08:47:06.094Z,6756
2017-10-26T08:48:06.118Z,6676
2017-10-26T08:49:05.818Z,7216
2017-10-26T08:50:06.153Z,7132
2017-10-26T08:51:06.175Z,6920
2017-10-26T08:52:06.210Z,6660
2017-10-26T08:53:06.562Z,6112
2017-10-26T08:54:06.262Z,6608
2017-10-26T08:55:05.959Z,6076
2017-10-26T08:56:06.649Z,7808
2017-10-26T08:57:06.334Z,8048
2017-10-26T08:58:06.696Z,8252
2017-10-26T08:59:06.696Z,8492
2017-10-26T09:00:05.745Z,8764
2017-10-26T09:01:06.096Z,9048
2017-10-26T09:02:06.113Z,9420
2017-10-26T09:03:06.459Z,9776
2017-10-26T09:04:06.158Z,10096
2017-10-26T09:05:06.500Z,10372
2017-10-26T09:06:06.204Z,10580
2017-10-26T09:07:06.552Z,10712
2017-10-26T09:08:06.591Z,10724
2017-10-26T09:09:06.591Z,10612
2017-10-26T09:10:06.946Z,11032
2017-10-26T09:11:06.976Z,11088
2017-10-26T09:12:06.989Z,10092
2017-10-26T09:13:06.047Z,8244
2017-10-26T09:14:07.034Z,8344
2017-10-26T09:15:07.062Z,7620
2017-10-26T09:16:06.437Z,7436
2017-10-26T09:17:06.463Z,7816
2017-10-26T09:18:06.483Z,8108
2017-10-26T09:19:06.519Z,9696
2017-10-26T09:20:07.188Z,9312
2017-10-26T09:21:06.883Z,8660
2017-10-26T09:22:06.579Z,9748
2017-10-26T09:23:06.937Z,9960
2017-10-26T09:24:06.961Z,9664
2017-10-26T09:25:06.982Z,7468
2017-10-26T09:26:07.012Z,6176
2017-10-26T09:27:07.027Z,5808
2017-10-26T09:28:07.053Z,5568
2017-10-26T09:29:07.404Z,5584
2017-10-26T09:30:07.435Z,5560
2017-10-26T09:31:07.443Z,5688
2017-10-26T09:32:07.145Z,6188
2017-10-26T09:33:06.552Z,6812
2017-10-26T09:34:07.193Z,6480
2017-10-26T09:35:07.229Z,7712
2017-10-26T09:36:07.275Z,8532
2017-10-26T09:37:07.266Z,8960
2017-10-26T09:38:06.963Z,7856
2017-10-26T09:39:07.639Z,8500
2017-10-26T09:40:07.340Z,8400
2017-10-26T09:41:07.368Z,9716
2017-10-26T09:42:07.406Z,9364
2017-10-26T09:43:07.421Z,10084
2017-10-26T09:44:07.124Z,7968
2017-10-26T09:45:07.135Z,7908
2017-10-26T09:46:07.487Z,8972
2017-10-26T09:47:07.855Z,9812
2017-10-26T09:48:07.534Z,11692
2017-10-26T09:49:07.554Z,14688
2017-10-26T09:50:07.909Z,22432
2017-10-26T09:51:07.288Z,28352
2017-10-26T09:52:07.625Z,23744
2017-10-26T09:53:07.979Z,25088
2017-10-26T09:54:07.680Z,31552
2017-10-26T09:55:08.040Z,31104
2017-10-26T09:56:07.415Z,26976
2017-10-26T09:57:08.102Z,28736
2017-10-26T09:58:07.788Z,22208
2017-10-26T09:59:07.503Z,20800
2017-10-26T10:00:07.853Z,24576
2017-10-26T10:01:08.186Z,33696
2017-10-26T10:02:07.567Z,37376
2017-10-26T10:03:08.238Z,38112
2017-10-26T10:04:07.941Z,36288
2017-10-26T10:05:08.280Z,36832
2017-10-26T10:06:07.348Z,37408
2017-10-26T10:07:08.344Z,36960
2017-10-26T10:08:07.728Z,36448
2017-10-26T10:09:08.077Z,36032
2017-10-26T10:10:08.108Z,35936
2017-10-26T10:11:08.453Z,34560
2017-10-26T10:12:07.843Z,37856
2017-10-26T10:13:08.507Z,42880
2017-10-26T10:14:08.537Z,39168
2017-10-26T10:15:08.246Z,43552
2017-10-26T10:16:07.968Z,47904
2017-10-26T10:17:08.323Z,47200
2017-10-26T10:18:08.652Z,49312
2017-10-26T10:19:08.038Z,34336
2017-10-26T10:20:08.395Z,36192
2017-10-26T10:21:08.759Z,40576
2017-10-26T10:22:08.782Z,39328
2017-10-26T10:23:08.483Z,48320
2017-10-26T10:24:08.212Z,45472
2017-10-26T10:25:07.894Z,46688
2017-10-26T10:26:08.576Z,48992
2017-10-26T10:27:08.615Z,46944
2017-10-26T10:28:08.951Z,43968
2017-10-26T10:29:08.992Z,46144
2017-10-26T10:30:08.373Z,40512
2017-10-26T10:31:08.402Z,45920
2017-10-26T10:32:09.076Z,49984
2017-10-26T10:33:09.140Z,57568
2017-10-26T10:34:08.819Z,46432
2017-10-26T10:35:08.857Z,47552
2017-10-26T10:36:08.894Z,40128
2017-10-26T10:37:08.914Z,31392
2017-10-26T10:38:08.953Z,32736
2017-10-26T10:39:08.972Z,36800
2017-10-26T10:40:09.002Z,34880
2017-10-26T10:41:09.034Z,39264
2017-10-26T10:42:08.742Z,33760
2017-10-26T10:43:08.793Z,27296
2017-10-26T10:45:09.160Z,22176
2017-10-26T10:46:09.194Z,18784
2017-10-26T10:47:09.562Z,17216
2017-10-26T10:48:09.575Z,22464
2017-10-26T10:49:08.641Z,23200
2017-10-26T10:50:09.313Z,27488
2017-10-26T10:51:09.354Z,37184
2017-10-26T10:52:09.377Z,43808
2017-10-26T10:53:09.405Z,46976
2017-10-26T10:54:09.123Z,50272
2017-10-26T10:55:09.810Z,47008
2017-10-26T10:56:08.858Z,43136
2017-10-26T10:57:09.539Z,42880
2017-10-26T10:58:09.569Z,38624
2017-10-26T10:59:09.602Z,38880
2017-10-26T11:00:09.325Z,41728
2017-10-26T11:01:09.989Z,46912
2017-10-26T11:02:09.369Z,43744
2017-10-26T11:03:09.731Z,39808
2017-10-26T11:04:09.431Z,41952
2017-10-26T11:05:09.795Z,42688
2017-10-26T11:06:09.821Z,42112
2017-10-26T11:07:09.526Z,43264
2017-10-26T11:08:09.570Z,42752
2017-10-26T11:09:09.598Z,44544
2017-10-26T11:10:09.641Z,45888
2017-10-26T11:11:09.980Z,44768
2017-10-26T11:12:09.699Z,47872
2017-10-26T11:13:10.043Z,50080
2017-10-26T11:14:10.088Z,47968
2017-10-26T11:15:10.111Z,46976
2017-10-26T11:16:10.152Z,45952
2017-10-26T11:17:10.199Z,46368
2017-10-26T11:18:09.592Z,44928
2017-10-26T11:19:09.611Z,45280
2017-10-26T11:20:10.292Z,46560
2017-10-26T11:21:09.677Z,44768
2017-10-26T11:22:10.047Z,45472
2017-10-26T11:23:10.391Z,47808
2017-10-26T11:24:10.426Z,50112
2017-10-26T11:25:10.462Z,50688
2017-10-26T11:26:10.489Z,50496
2017-10-26T11:27:09.902Z,50464
2017-10-26T11:28:10.583Z,52992
2017-10-26T11:29:10.910Z,54336
2017-10-26T11:30:10.325Z,58112
2017-10-26T11:31:10.660Z,61376
2017-10-26T11:32:10.382Z,62208
2017-10-26T11:33:10.734Z,60704
2017-10-26T11:34:10.769Z,63680
2017-10-26T11:35:10.800Z,67968
2017-10-26T11:36:10.837Z,70144
2017-10-26T11:37:10.872Z,68128
2017-10-26T11:38:10.913Z,67520
2017-10-26T11:39:11.262Z,67840
2017-10-26T11:40:10.656Z,69952
2017-10-26T11:41:11.017Z,68928
2017-10-26T11:42:11.362Z,71200
2017-10-26T11:43:10.446Z,69056
2017-10-26T11:44:11.458Z,70080
2017-10-26T11:45:10.826Z,70336
2017-10-26T11:46:10.863Z,69056
2017-10-26T11:47:10.913Z,69376
2017-10-26T11:48:10.930Z,69824
2017-10-26T11:49:10.967Z,70656
2017-10-26T11:50:11.648Z,69088
2017-10-26T11:51:11.352Z,66592
2017-10-26T11:52:11.072Z,68512
2017-10-26T11:53:11.769Z,68032
2017-10-26T11:54:11.136Z,64960
2017-10-26T11:55:11.174Z,62080
2017-10-26T11:56:11.224Z,59936
2017-10-26T11:57:10.916Z,61440
2017-10-26T11:58:11.603Z,64096
2017-10-26T11:59:11.313Z,63712
2017-10-26T12:00:11.359Z,69856
2017-10-26T12:01:11.706Z,71872
2017-10-26T12:02:12.068Z,75648
2017-10-26T12:03:11.771Z,78336
2017-10-26T12:04:11.502Z,77216
2017-10-26T12:05:11.837Z,75264
2017-10-26T12:06:11.236Z,77504
2017-10-26T12:07:11.594Z,74944
2017-10-26T12:08:12.278Z,67552
2017-10-26T12:09:12.313Z,74720
2017-10-26T12:10:12.358Z,74080
2017-10-26T12:11:11.405Z,74624
2017-10-26T12:12:11.749Z,75744
2017-10-26T12:13:11.778Z,76352
2017-10-26T12:14:11.813Z,79136
2017-10-26T12:15:12.176Z,79616
2017-10-26T12:16:12.237Z,77088
2017-10-26T12:17:11.950Z,74656
2017-10-26T12:18:12.634Z,73728
2017-10-26T12:19:12.344Z,73376
2017-10-26T12:20:12.377Z,72672
2017-10-26T12:21:12.419Z,68672
2017-10-26T12:22:12.773Z,65760
2017-10-26T12:23:12.493Z,62688
2017-10-26T12:24:12.530Z,62112
2017-10-26T12:25:12.567Z,61728
2017-10-26T12:26:12.274Z,67488
2017-10-26T12:27:12.637Z,71072
2017-10-26T12:28:12.681Z,66688
2017-10-26T12:29:12.730Z,61280
2017-10-26T12:30:12.757Z,55040
2017-10-26T12:31:12.782Z,48320
2017-10-26T12:32:12.819Z,50272
2017-10-26T12:33:12.875Z,55424
2017-10-26T12:34:12.569Z,59904
2017-10-26T12:35:12.929Z,65376
2017-10-26T12:36:12.639Z,69120
2017-10-26T12:37:12.675Z,68480
2017-10-26T12:38:13.041Z,69632
2017-10-26T12:39:13.070Z,68896
2017-10-26T12:40:13.109Z,67936
2017-10-26T12:41:12.498Z,68544
2017-10-26T12:42:13.178Z,68896
2017-10-26T12:43:13.541Z,69760
2017-10-26T12:44:13.595Z,68352
2017-10-26T12:45:12.973Z,71232
2017-10-26T12:46:13.011Z,70112
2017-10-26T12:47:13.050Z,66048
2017-10-26T12:48:13.076Z,62336
2017-10-26T12:49:13.115Z,58528
2017-10-26T12:50:13.472Z,54336
2017-10-26T12:51:13.515Z,50528
2017-10-26T12:52:13.552Z,55648
2017-10-26T12:53:13.261Z,58144
2017-10-26T12:54:13.296Z,65152
2017-10-26T12:55:13.021Z,70592
2017-10-26T12:56:13.694Z,79264
2017-10-26T12:57:13.733Z,85696
2017-10-26T12:58:13.127Z,90432
2017-10-26T12:59:14.123Z,91264
2017-10-26T13:00:13.519Z,83936
2017-10-26T13:01:14.205Z,76640
2017-10-26T13:02:13.922Z,75328
2017-10-26T13:03:14.278Z,74240
2017-10-26T13:04:13.668Z,80864
2017-10-26T13:05:13.385Z,87808
2017-10-26T13:06:14.069Z,87104
2017-10-26T13:07:13.790Z,78752
2017-10-26T13:08:14.145Z,72640
2017-10-26T13:09:14.509Z,66336
2017-10-26T13:10:13.590Z,72032
2017-10-26T13:11:14.577Z,78048
2017-10-26T13:12:14.622Z,82304
2017-10-26T13:13:14.340Z,83424
2017-10-26T13:14:14.694Z,84736
2017-10-26T13:15:14.732Z,86304
2017-10-26T13:16:14.768Z,85600
2017-10-26T13:17:14.157Z,86528
2017-10-26T13:18:14.211Z,90176
2017-10-26T13:19:14.553Z,92608
2017-10-26T13:20:14.274Z,94464
2017-10-26T13:21:13.982Z,90368
2017-10-26T13:22:14.660Z,86560
2017-10-26T13:23:15.020Z,86688
2017-10-26T13:24:15.061Z,87200
2017-10-26T13:25:15.107Z,93568
2017-10-26T13:26:14.811Z,98240
2017-10-26T13:27:14.527Z,98496
2017-10-26T13:28:15.215Z,97696
2017-10-26T13:29:14.616Z,99456
2017-10-26T13:30:14.317Z,98016
2017-10-26T13:31:14.691Z,95200
2017-10-26T13:32:14.711Z,94816
2017-10-26T13:33:14.742Z,95040
2017-10-26T13:34:15.105Z,92736
2017-10-26T13:35:14.504Z,93280
2017-10-26T13:36:15.514Z,92480
2017-10-26T13:37:15.220Z,90272
2017-10-26T13:38:14.931Z,89440
2017-10-26T13:39:14.970Z,88320
2017-10-26T13:40:15.332Z,89056
2017-10-26T13:41:15.360Z,91584
2017-10-26T13:42:14.750Z,91424
2017-10-26T13:43:15.428Z,86688
2017-10-26T13:44:15.472Z,88544
2017-10-26T13:45:15.179Z,86208
2017-10-26T13:46:15.237Z,84832
2017-10-26T13:47:15.573Z,88288